Terminal Aerodrome Forecast
Issued by NWS Pendleton, OR

Home | Current Version | Previous Version | Text Only | Print | Product List | Glossary On
Versions: 1 2 3 4 5 6 7 8 9 10 11 12 13 14
000
FTUS46 KPDT 011738
TAFPDT
TAF
KPDT 011738Z 0118/0218 24009KT P6SM FEW070 FEW100
     FM012100 27012G19KT P6SM SCT090
     FM020100 30008KT P6SM BKN090
     FM020400 13006KT P6SM BKN100
     FM021000 09005KT P6SM FEW100=

USA.gov is the U.S. government's official web portal to all federal, state and local government web resources and services.